sensor_id;sensor_type;location;lat;lon;timestamp;pressure;altitude;pressure_sealevel;temperature;humidity
48035;BME280;33812;46.480;6.834;2022-10-29T00:02:40;94615.97;;;23.19;42.42
48035;BME280;33812;46.480;6.834;2022-10-29T00:06:42;94622.25;;;23.03;41.28
48035;BME280;33812;46.480;6.834;2022-10-29T00:10:44;94617.50;;;23.04;42.29
48035;BME280;33812;46.480;6.834;2022-10-29T00:14:47;94613.00;;;23.10;42.78
48035;BME280;33812;46.480;6.834;2022-10-29T00:18:49;94608.59;;;23.13;41.82
48035;BME280;33812;46.480;6.834;2022-10-29T00:22:52;94602.06;;;23.03;42.84
48035;BME280;33812;46.480;6.834;2022-10-29T00:26:54;94603.28;;;23.02;42.50
48035;BME280;33812;46.480;6.834;2022-10-29T00:31:01;94591.31;;;23.05;40.95
48035;BME280;33812;46.480;6.834;2022-10-29T00:35:03;94595.41;;;23.00;41.71
48035;BME280;33812;46.480;6.834;2022-10-29T00:39:05;94599.81;;;22.98;41.53
48035;BME280;33812;46.480;6.834;2022-10-29T00:43:13;94596.88;;;23.05;41.94
48035;BME280;33812;46.480;6.834;2022-10-29T00:47:21;94597.91;;;22.94;41.30
48035;BME280;33812;46.480;6.834;2022-10-29T00:51:24;94589.44;;;23.02;42.39
48035;BME280;33812;46.480;6.834;2022-10-29T00:55:27;94589.84;;;22.84;40.87
48035;BME280;33812;46.480;6.834;2022-10-29T00:59:29;94577.81;;;22.90;42.17
48035;BME280;33812;46.480;6.834;2022-10-29T01:03:33;94572.50;;;22.96;41.52
48035;BME280;33812;46.480;6.834;2022-10-29T01:07:36;94589.72;;;22.87;40.64
48035;BME280;33812;46.480;6.834;2022-10-29T01:11:47;94583.00;;;22.88;41.89
48035;BME280;33812;46.480;6.834;2022-10-29T01:16:00;94576.22;;;22.89;41.57
48035;BME280;33812;46.480;6.834;2022-10-29T01:25:06;94567.75;;;22.97;42.33
48035;BME280;33812;46.480;6.834;2022-10-29T01:29:20;94566.72;;;22.90;41.85
48035;BME280;33812;46.480;6.834;2022-10-29T01:33:34;94557.72;;;23.03;43.36
48035;BME280;33812;46.480;6.834;2022-10-29T01:37:41;94555.28;;;23.05;43.19
48035;BME280;33812;46.480;6.834;2022-10-29T01:41:52;94564.81;;;23.04;43.20
48035;BME280;33812;46.480;6.834;2022-10-29T01:45:59;94558.75;;;22.92;42.21
48035;BME280;33812;46.480;6.834;2022-10-29T01:50:08;94557.34;;;22.84;41.33
48035;BME280;33812;46.480;6.834;2022-10-29T01:54:10;94553.31;;;22.89;42.10
48035;BME280;33812;46.480;6.834;2022-10-29T01:58:13;94544.72;;;23.00;43.21
48035;BME280;33812;46.480;6.834;2022-10-29T02:02:20;94538.66;;;23.05;43.36
48035;BME280;33812;46.480;6.834;2022-10-29T02:06:34;94533.19;;;23.01;42.46
48035;BME280;33812;46.480;6.834;2022-10-29T02:10:40;94536.03;;;22.81;40.96
48035;BME280;33812;46.480;6.834;2022-10-29T02:14:49;94544.28;;;22.85;42.03
48035;BME280;33812;46.480;6.834;2022-10-29T02:18:53;94540.78;;;22.80;42.07
48035;BME280;33812;46.480;6.834;2022-10-29T02:22:58;94534.50;;;22.80;41.53
48035;BME280;33812;46.480;6.834;2022-10-29T02:26:59;94526.50;;;22.65;41.33
48035;BME280;33812;46.480;6.834;2022-10-29T02:31:01;94523.47;;;22.76;42.33
48035;BME280;33812;46.480;6.834;2022-10-29T02:35:04;94519.66;;;22.70;41.98
48035;BME280;33812;46.480;6.834;2022-10-29T02:39:07;94520.19;;;22.81;42.94
48035;BME280;33812;46.480;6.834;2022-10-29T02:43:09;94517.88;;;22.80;42.36
48035;BME280;33812;46.480;6.834;2022-10-29T02:47:11;94516.13;;;22.69;42.83
48035;BME280;33812;46.480;6.834;2022-10-29T02:51:14;94529.03;;;22.56;41.10
48035;BME280;33812;46.480;6.834;2022-10-29T02:55:17;94528.41;;;22.68;41.93
48035;BME280;33812;46.480;6.834;2022-10-29T02:59:19;94527.72;;;22.64;41.98
48035;BME280;33812;46.480;6.834;2022-10-29T03:03:21;94529.34;;;22.62;40.85
48035;BME280;33812;46.480;6.834;2022-10-29T03:07:23;94514.53;;;22.68;41.99
48035;BME280;33812;46.480;6.834;2022-10-29T03:11:26;94523.78;;;22.62;41.76
48035;BME280;33812;46.480;6.834;2022-10-29T03:15:28;94509.34;;;22.70;42.40
48035;BME280;33812;46.480;6.834;2022-10-29T03:19:30;94517.75;;;22.67;41.82
48035;BME280;33812;46.480;6.834;2022-10-29T03:23:33;94510.34;;;22.60;42.33
48035;BME280;33812;46.480;6.834;2022-10-29T03:27:41;94506.59;;;22.70;42.86
48035;BME280;33812;46.480;6.834;2022-10-29T03:31:43;94515.88;;;22.60;43.32
48035;BME280;33812;46.480;6.834;2022-10-29T03:35:44;94516.63;;;22.64;41.91
48035;BME280;33812;46.480;6.834;2022-10-29T03:39:46;94508.09;;;22.55;41.00
48035;BME280;33812;46.480;6.834;2022-10-29T03:43:50;94507.53;;;22.64;41.60
48035;BME280;33812;46.480;6.834;2022-10-29T03:47:51;94503.47;;;22.68;41.83
48035;BME280;33812;46.480;6.834;2022-10-29T03:51:53;94499.13;;;22.67;41.79
48035;BME280;33812;46.480;6.834;2022-10-29T03:55:55;94501.47;;;22.69;41.90
48035;BME280;33812;46.480;6.834;2022-10-29T03:59:59;94494.13;;;22.79;42.53
48035;BME280;33812;46.480;6.834;2022-10-29T04:04:01;94496.97;;;22.75;42.42
48035;BME280;33812;46.480;6.834;2022-10-29T04:08:03;94490.31;;;22.73;42.63
48035;BME280;33812;46.480;6.834;2022-10-29T04:12:06;94495.41;;;22.74;43.33
48035;BME280;33812;46.480;6.834;2022-10-29T04:16:09;94503.03;;;22.70;41.66
48035;BME280;33812;46.480;6.834;2022-10-29T04:20:11;94502.47;;;22.58;42.05
48035;BME280;33812;46.480;6.834;2022-10-29T04:24:13;94505.34;;;22.72;42.18
48035;BME280;33812;46.480;6.834;2022-10-29T04:28:14;94511.56;;;22.59;40.78
48035;BME280;33812;46.480;6.834;2022-10-29T04:32:18;94507.16;;;22.62;40.98
48035;BME280;33812;46.480;6.834;2022-10-29T04:36:20;94517.09;;;22.59;41.37
48035;BME280;33812;46.480;6.834;2022-10-29T04:40:22;94517.31;;;22.68;41.42
48035;BME280;33812;46.480;6.834;2022-10-29T04:44:24;94501.56;;;22.82;42.05
48035;BME280;33812;46.480;6.834;2022-10-29T04:48:27;94512.56;;;22.69;41.40
48035;BME280;33812;46.480;6.834;2022-10-29T04:52:29;94501.41;;;22.73;41.72
48035;BME280;33812;46.480;6.834;2022-10-29T04:56:31;94498.88;;;22.78;41.57
48035;BME280;33812;46.480;6.834;2022-10-29T05:00:33;94511.00;;;22.85;43.06
48035;BME280;33812;46.480;6.834;2022-10-29T05:04:36;94506.34;;;22.81;42.73
48035;BME280;33812;46.480;6.834;2022-10-29T05:08:38;94512.84;;;22.75;41.13
48035;BME280;33812;46.480;6.834;2022-10-29T05:12:39;94506.44;;;22.57;40.36
48035;BME280;33812;46.480;6.834;2022-10-29T05:16:41;94501.63;;;22.62;41.38
48035;BME280;33812;46.480;6.834;2022-10-29T05:20:44;94518.72;;;22.56;41.24
48035;BME280;33812;46.480;6.834;2022-10-29T05:24:46;94509.13;;;22.61;42.23
48035;BME280;33812;46.480;6.834;2022-10-29T05:28:48;94506.22;;;22.68;42.19
48035;BME280;33812;46.480;6.834;2022-10-29T05:32:50;94515.25;;;22.73;41.48
48035;BME280;33812;46.480;6.834;2022-10-29T05:36:53;94517.88;;;22.80;42.51
48035;BME280;33812;46.480;6.834;2022-10-29T05:40:56;94507.09;;;22.65;40.72
48035;BME280;33812;46.480;6.834;2022-10-29T05:44:58;94498.03;;;22.61;41.18
48035;BME280;33812;46.480;6.834;2022-10-29T05:49:00;94503.97;;;22.63;41.55
48035;BME280;33812;46.480;6.834;2022-10-29T05:53:05;94489.97;;;22.70;40.78
48035;BME280;33812;46.480;6.834;2022-10-29T05:57:07;94499.25;;;22.60;40.62
48035;BME280;33812;46.480;6.834;2022-10-29T06:01:09;94500.53;;;22.76;41.89
48035;BME280;33812;46.480;6.834;2022-10-29T06:05:11;94501.31;;;22.56;41.55
48035;BME280;33812;46.480;6.834;2022-10-29T06:09:14;94503.09;;;22.66;41.10
48035;BME280;33812;46.480;6.834;2022-10-29T06:13:18;94511.72;;;22.52;40.69
48035;BME280;33812;46.480;6.834;2022-10-29T06:17:20;94515.59;;;22.75;41.63
48035;BME280;33812;46.480;6.834;2022-10-29T06:21:21;94508.69;;;22.83;41.94
48035;BME280;33812;46.480;6.834;2022-10-29T06:25:25;94503.50;;;22.85;41.54
48035;BME280;33812;46.480;6.834;2022-10-29T06:29:27;94513.34;;;22.86;41.39
48035;BME280;33812;46.480;6.834;2022-10-29T06:33:29;94513.78;;;22.85;41.85
48035;BME280;33812;46.480;6.834;2022-10-29T06:37:31;94504.88;;;22.93;42.22
48035;BME280;33812;46.480;6.834;2022-10-29T06:41:36;94510.78;;;22.96;42.06
48035;BME280;33812;46.480;6.834;2022-10-29T06:45:38;94511.97;;;22.94;42.80
48035;BME280;33812;46.480;6.834;2022-10-29T06:49:47;94515.00;;;23.00;41.78
48035;BME280;33812;46.480;6.834;2022-10-29T06:53:49;94511.44;;;23.00;41.90
48035;BME280;33812;46.480;6.834;2022-10-29T06:58:02;94509.38;;;23.04;42.14
48035;BME280;33812;46.480;6.834;2022-10-29T07:02:05;94511.00;;;23.01;42.09
48035;BME280;33812;46.480;6.834;2022-10-29T07:06:07;94513.03;;;23.01;42.38
48035;BME280;33812;46.480;6.834;2022-10-29T07:10:09;94526.97;;;22.97;41.34
48035;BME280;33812;46.480;6.834;2022-10-29T07:14:12;94526.97;;;22.97;42.52
48035;BME280;33812;46.480;6.834;2022-10-29T07:18:13;94527.41;;;22.96;41.00
48035;BME280;33812;46.480;6.834;2022-10-29T07:22:23;94533.91;;;22.89;40.28
48035;BME280;33812;46.480;6.834;2022-10-29T07:26:25;94543.75;;;22.90;41.54
48035;BME280;33812;46.480;6.834;2022-10-29T07:30:29;94534.84;;;22.99;41.50
48035;BME280;33812;46.480;6.834;2022-10-29T07:34:31;94544.38;;;22.98;41.17
48035;BME280;33812;46.480;6.834;2022-10-29T07:38:33;94538.06;;;22.97;41.18
48035;BME280;33812;46.480;6.834;2022-10-29T07:42:35;94550.09;;;22.90;39.52
48035;BME280;33812;46.480;6.834;2022-10-29T07:46:38;94541.25;;;22.96;41.61
48035;BME280;33812;46.480;6.834;2022-10-29T07:50:41;94538.72;;;23.01;41.81
48035;BME280;33812;46.480;6.834;2022-10-29T07:54:43;94541.19;;;22.99;40.29
48035;BME280;33812;46.480;6.834;2022-10-29T07:58:45;94533.97;;;23.02;41.63
48035;BME280;33812;46.480;6.834;2022-10-29T08:02:52;94542.66;;;23.04;41.84
48035;BME280;33812;46.480;6.834;2022-10-29T08:06:53;94543.75;;;23.06;41.21
48035;BME280;33812;46.480;6.834;2022-10-29T08:10:58;94544.13;;;23.09;41.41
48035;BME280;33812;46.480;6.834;2022-10-29T08:15:00;94538.66;;;23.05;41.47
48035;BME280;33812;46.480;6.834;2022-10-29T08:19:03;94543.75;;;23.06;41.12
48035;BME280;33812;46.480;6.834;2022-10-29T08:23:05;94536.06;;;23.14;40.13
48035;BME280;33812;46.480;6.834;2022-10-29T08:27:07;94541.97;;;23.16;41.19
48035;BME280;33812;46.480;6.834;2022-10-29T08:31:09;94539.97;;;23.17;39.95
48035;BME280;33812;46.480;6.834;2022-10-29T08:35:12;94539.63;;;23.15;40.65
48035;BME280;33812;46.480;6.834;2022-10-29T08:39:14;94539.63;;;23.15;40.99
48035;BME280;33812;46.480;6.834;2022-10-29T08:43:46;94548.78;;;23.12;39.45
48035;BME280;33812;46.480;6.834;2022-10-29T08:48:11;94540.75;;;23.17;40.50
48035;BME280;33812;46.480;6.834;2022-10-29T08:52:21;94538.41;;;23.16;40.58
48035;BME280;33812;46.480;6.834;2022-10-29T08:56:27;94543.16;;;23.15;40.96
48035;BME280;33812;46.480;6.834;2022-10-29T09:00:31;94543.50;;;23.17;40.75
48035;BME280;33812;46.480;6.834;2022-10-29T09:04:35;94538.41;;;23.16;40.61
48035;BME280;33812;46.480;6.834;2022-10-29T09:08:52;94544.75;;;23.16;40.53
48035;BME280;33812;46.480;6.834;2022-10-29T09:13:18;94535.19;;;23.17;40.39
48035;BME280;33812;46.480;6.834;2022-10-29T09:17:29;94536.78;;;23.18;39.96
48035;BME280;33812;46.480;6.834;2022-10-29T09:21:39;94532.78;;;23.19;40.82
48035;BME280;33812;46.480;6.834;2022-10-29T09:25:51;94524.72;;;23.25;40.74
48035;BME280;33812;46.480;6.834;2022-10-29T09:30:04;94529.56;;;23.21;40.60
48035;BME280;33812;46.480;6.834;2022-10-29T09:34:12;94529.47;;;23.25;41.08
48035;BME280;33812;46.480;6.834;2022-10-29T09:38:20;94520.81;;;23.23;40.81
48035;BME280;33812;46.480;6.834;2022-10-29T09:42:33;94516.94;;;23.20;40.04
48035;BME280;33812;46.480;6.834;2022-10-29T09:46:41;94508.19;;;23.22;40.07
48035;BME280;33812;46.480;6.834;2022-10-29T09:50:55;94515.25;;;23.23;40.11
48035;BME280;33812;46.480;6.834;2022-10-29T09:55:02;94508.94;;;23.22;41.29
48035;BME280;33812;46.480;6.834;2022-10-29T09:59:11;94494.66;;;23.24;40.60
48035;BME280;33812;46.480;6.834;2022-10-29T10:03:21;94492.56;;;23.28;41.01
48035;BME280;33812;46.480;6.834;2022-10-29T10:07:25;94496.56;;;23.27;40.72
48035;BME280;33812;46.480;6.834;2022-10-29T10:11:34;94493.00;;;23.26;41.64
48035;BME280;33812;46.480;6.834;2022-10-29T10:15:38;94500.88;;;23.28;41.27
48035;BME280;33812;46.480;6.834;2022-10-29T10:19:44;94492.13;;;23.29;41.07
48035;BME280;33812;46.480;6.834;2022-10-29T10:23:49;94486.22;;;23.27;41.06
48035;BME280;33812;46.480;6.834;2022-10-29T10:27:52;94480.25;;;23.29;41.27
48035;BME280;33812;46.480;6.834;2022-10-29T10:36:23;94476.63;;;23.32;42.42
48035;BME280;33812;46.480;6.834;2022-10-29T10:40:25;94477.81;;;23.31;42.38
48035;BME280;33812;46.480;6.834;2022-10-29T10:44:28;94475.03;;;23.31;42.27
48035;BME280;33812;46.480;6.834;2022-10-29T10:48:30;94467.16;;;23.29;42.75
48035;BME280;33812;46.480;6.834;2022-10-29T10:52:33;94462.41;;;23.30;42.26
48035;BME280;33812;46.480;6.834;2022-10-29T10:56:50;94466.72;;;23.31;42.06
48035;BME280;33812;46.480;6.834;2022-10-29T11:00:55;94461.09;;;23.35;42.79
48035;BME280;33812;46.480;6.834;2022-10-29T11:05:01;94461.09;;;23.35;42.88
48035;BME280;33812;46.480;6.834;2022-10-29T11:09:12;94448.00;;;23.35;43.55
48035;BME280;33812;46.480;6.834;2022-10-29T11:13:21;94447.91;;;23.39;43.44
48035;BME280;33812;46.480;6.834;2022-10-29T11:17:25;94439.53;;;23.42;43.28
48035;BME280;33812;46.480;6.834;2022-10-29T11:21:32;94434.41;;;23.41;42.95
48035;BME280;33812;46.480;6.834;2022-10-29T11:25:40;94434.31;;;23.45;43.24
48035;BME280;33812;46.480;6.834;2022-10-29T11:29:49;94428.88;;;23.41;43.14
48035;BME280;33812;46.480;6.834;2022-10-29T11:33:57;94430.41;;;23.42;43.35
48035;BME280;33812;46.480;6.834;2022-10-29T11:38:09;94418.44;;;23.45;43.46
48035;BME280;33812;46.480;6.834;2022-10-29T11:42:15;94416.00;;;23.47;43.50
48035;BME280;33812;46.480;6.834;2022-10-29T11:46:24;94415.56;;;23.49;43.69
48035;BME280;33812;46.480;6.834;2022-10-29T11:50:38;94403.72;;;23.48;43.83
48035;BME280;33812;46.480;6.834;2022-10-29T11:54:53;94400.81;;;23.52;44.04
48035;BME280;33812;46.480;6.834;2022-10-29T11:59:04;94405.97;;;23.53;44.78
48035;BME280;33812;46.480;6.834;2022-10-29T12:03:28;94403.59;;;23.52;44.75
48035;BME280;33812;46.480;6.834;2022-10-29T12:07:41;94398.75;;;23.56;45.69
48035;BME280;33812;46.480;6.834;2022-10-29T12:11:56;94395.97;;;23.56;45.12
48035;BME280;33812;46.480;6.834;2022-10-29T12:16:13;94382.88;;;23.57;45.28
48035;BME280;33812;46.480;6.834;2022-10-29T12:20:23;94381.75;;;23.54;45.15
48035;BME280;33812;46.480;6.834;2022-10-29T12:24:43;94374.66;;;23.53;44.57
48035;BME280;33812;46.480;6.834;2022-10-29T12:28:54;94369.34;;;23.59;44.68
48035;BME280;33812;46.480;6.834;2022-10-29T12:33:06;94374.44;;;23.60;45.67
48035;BME280;33812;46.480;6.834;2022-10-29T12:37:15;94373.22;;;23.61;45.57
48035;BME280;33812;46.480;6.834;2022-10-29T12:41:19;94368.03;;;23.63;46.48
48035;BME280;33812;46.480;6.834;2022-10-29T12:45:31;94367.69;;;23.61;45.84
48035;BME280;33812;46.480;6.834;2022-10-29T12:49:46;94364.47;;;23.63;46.19
48035;BME280;33812;46.480;6.834;2022-10-29T12:54:11;94356.56;;;23.61;46.19
48035;BME280;33812;46.480;6.834;2022-10-29T12:58:43;94357.38;;;23.62;46.20
48035;BME280;33812;46.480;6.834;2022-10-29T13:02:45;94356.13;;;23.63;46.53
48035;BME280;33812;46.480;6.834;2022-10-29T13:06:55;94354.59;;;23.62;45.84
48035;BME280;33812;46.480;6.834;2022-10-29T13:10:58;94353.34;;;23.63;45.73
48035;BME280;33812;46.480;6.834;2022-10-29T13:15:02;94345.81;;;23.63;45.25
48035;BME280;33812;46.480;6.834;2022-10-29T13:19:17;94339.59;;;23.59;45.24
48035;BME280;33812;46.480;6.834;2022-10-29T13:23:31;94342.59;;;23.65;44.65
48035;BME280;33812;46.480;6.834;2022-10-29T13:27:34;94341.06;;;23.64;44.46
48035;BME280;33812;46.480;6.834;2022-10-29T13:31:47;94337.41;;;23.67;43.69
48035;BME280;33812;46.480;6.834;2022-10-29T13:35:52;94334.63;;;23.67;44.27
48035;BME280;33812;46.480;6.834;2022-10-29T13:44:29;94329.72;;;23.58;43.88
48035;BME280;33812;46.480;6.834;2022-10-29T13:48:34;94333.59;;;23.61;43.98
48035;BME280;33812;46.480;6.834;2022-10-29T13:52:39;94328.84;;;23.61;44.33
48035;BME280;33812;46.480;6.834;2022-10-29T13:56:45;94327.28;;;23.60;45.03
48035;BME280;33812;46.480;6.834;2022-10-29T14:00:55;94324.97;;;23.59;45.19
48035;BME280;33812;46.480;6.834;2022-10-29T14:05:02;94331.94;;;23.63;45.30
48035;BME280;33812;46.480;6.834;2022-10-29T14:09:12;94324.06;;;23.62;45.69
48035;BME280;33812;46.480;6.834;2022-10-29T14:13:29;94321.63;;;23.64;46.46
48035;BME280;33812;46.480;6.834;2022-10-29T14:17:33;94333.94;;;23.63;46.43
48035;BME280;33812;46.480;6.834;2022-10-29T14:21:36;94335.81;;;23.66;46.32
48035;BME280;33812;46.480;6.834;2022-10-29T14:25:38;94327.94;;;23.64;46.26
48035;BME280;33812;46.480;6.834;2022-10-29T14:29:40;94325.06;;;23.68;46.35
48035;BME280;33812;46.480;6.834;2022-10-29T14:33:45;94324.97;;;23.72;46.21
48035;BME280;33812;46.480;6.834;2022-10-29T14:37:48;94322.19;;;23.72;45.84
48035;BME280;33812;46.480;6.834;2022-10-29T14:41:51;94319.97;;;23.66;45.82
48035;BME280;33812;46.480;6.834;2022-10-29T14:45:55;94323.63;;;23.63;45.88
48035;BME280;33812;46.480;6.834;2022-10-29T14:50:00;94320.06;;;23.63;45.88
48035;BME280;33812;46.480;6.834;2022-10-29T14:54:04;94322.41;;;23.64;45.45
48035;BME280;33812;46.480;6.834;2022-10-29T14:58:13;94318.53;;;23.62;45.18
48035;BME280;33812;46.480;6.834;2022-10-29T15:02:20;94322.50;;;23.61;45.20
48035;BME280;33812;46.480;6.834;2022-10-29T15:06:27;94315.31;;;23.63;44.71
48035;BME280;33812;46.480;6.834;2022-10-29T15:10:29;94321.63;;;23.64;44.55
48035;BME280;33812;46.480;6.834;2022-10-29T15:14:36;94319.63;;;23.64;44.56
48035;BME280;33812;46.480;6.834;2022-10-29T15:18:47;94315.97;;;23.67;44.71
48035;BME280;33812;46.480;6.834;2022-10-29T15:22:53;94323.97;;;23.65;44.67
48035;BME280;33812;46.480;6.834;2022-10-29T15:26:57;94321.53;;;23.67;44.67
48035;BME280;33812;46.480;6.834;2022-10-29T15:31:02;94322.41;;;23.64;44.80
48035;BME280;33812;46.480;6.834;2022-10-29T15:35:08;94322.41;;;23.64;45.17
48035;BME280;33812;46.480;6.834;2022-10-29T15:39:25;94320.75;;;23.67;44.52
48035;BME280;33812;46.480;6.834;2022-10-29T15:43:29;94321.53;;;23.67;45.22
48035;BME280;33812;46.480;6.834;2022-10-29T15:47:32;94316.75;;;23.68;45.01
48035;BME280;33812;46.480;6.834;2022-10-29T15:51:35;94318.31;;;23.69;44.77
48035;BME280;33812;46.480;6.834;2022-10-29T15:55:38;94317.19;;;23.66;44.62
48035;BME280;33812;46.480;6.834;2022-10-29T15:59:41;94319.97;;;23.66;44.80
48035;BME280;33812;46.480;6.834;2022-10-29T16:03:43;94314.19;;;23.74;44.19
48035;BME280;33812;46.480;6.834;2022-10-29T16:07:45;94312.41;;;23.67;44.29
48035;BME280;33812;46.480;6.834;2022-10-29T16:11:49;94304.88;;;23.67;44.16
48035;BME280;33812;46.480;6.834;2022-10-29T16:15:51;94309.31;;;23.65;44.27
48035;BME280;33812;46.480;6.834;2022-10-29T16:19:53;94311.63;;;23.66;43.70
48035;BME280;33812;46.480;6.834;2022-10-29T16:23:54;94306.38;;;23.13;41.22
48035;BME280;33812;46.480;6.834;2022-10-29T16:27:57;94300.47;;;23.40;42.23
48035;BME280;33812;46.480;6.834;2022-10-29T16:31:59;94301.19;;;23.58;42.54
48035;BME280;33812;46.480;6.834;2022-10-29T16:36:01;94297.66;;;23.57;42.72
48035;BME280;33812;46.480;6.834;2022-10-29T16:40:03;94310.41;;;23.54;41.57
48035;BME280;33812;46.480;6.834;2022-10-29T16:44:07;94306.28;;;23.59;42.25
48035;BME280;33812;46.480;6.834;2022-10-29T16:48:09;94311.41;;;23.61;42.52
48035;BME280;33812;46.480;6.834;2022-10-29T16:52:11;94310.19;;;23.62;43.42
48035;BME280;33812;46.480;6.834;2022-10-29T16:56:13;94315.41;;;23.60;43.51
48035;BME280;33812;46.480;6.834;2022-10-29T17:00:16;94310.19;;;23.62;43.44
48035;BME280;33812;46.480;6.834;2022-10-29T17:04:18;94311.28;;;23.64;42.60
48035;BME280;33812;46.480;6.834;2022-10-29T17:08:21;94305.75;;;23.64;42.73
48035;BME280;33812;46.480;6.834;2022-10-29T17:12:23;94303.84;;;23.61;43.95
48035;BME280;33812;46.480;6.834;2022-10-29T17:16:27;94311.41;;;23.61;42.34
48035;BME280;33812;46.480;6.834;2022-10-29T17:20:28;94311.09;;;23.59;43.41
48035;BME280;33812;46.480;6.834;2022-10-29T17:24:30;94313.06;;;23.58;42.53
48035;BME280;33812;46.480;6.834;2022-10-29T17:28:33;94309.28;;;23.52;41.98
48035;BME280;33812;46.480;6.834;2022-10-29T17:32:38;94315.06;;;23.28;42.22
48035;BME280;33812;46.480;6.834;2022-10-29T17:36:40;94316.00;;;23.38;42.63
48035;BME280;33812;46.480;6.834;2022-10-29T17:40:43;94316.41;;;23.36;43.38
48035;BME280;33812;46.480;6.834;2022-10-29T17:44:45;94322.63;;;23.57;44.54
48035;BME280;33812;46.480;6.834;2022-10-29T17:48:49;94326.84;;;23.32;44.52
48035;BME280;33812;46.480;6.834;2022-10-29T17:52:54;94331.59;;;23.48;45.47
48035;BME280;33812;46.480;6.834;2022-10-29T17:56:57;94328.19;;;23.40;44.44
48035;BME280;33812;46.480;6.834;2022-10-29T18:01:03;94332.31;;;23.36;45.57
48035;BME280;33812;46.480;6.834;2022-10-29T18:05:06;94329.56;;;23.49;45.75
48035;BME280;33812;46.480;6.834;2022-10-29T18:09:09;94338.59;;;23.36;41.46
48035;BME280;33812;46.480;6.834;2022-10-29T18:13:11;94335.25;;;21.82;41.02
48035;BME280;33812;46.480;6.834;2022-10-29T18:17:13;94335.63;;;22.84;41.36
48035;BME280;33812;46.480;6.834;2022-10-29T18:21:18;94336.06;;;23.29;41.54
48035;BME280;33812;46.480;6.834;2022-10-29T18:25:19;94334.47;;;23.15;40.87
48035;BME280;33812;46.480;6.834;2022-10-29T18:29:21;94347.09;;;23.16;41.47
48035;BME280;33812;46.480;6.834;2022-10-29T18:33:23;94349.03;;;23.02;42.05
48035;BME280;33812;46.480;6.834;2022-10-29T18:37:27;94344.16;;;23.06;42.42
48035;BME280;33812;46.480;6.834;2022-10-29T18:41:30;94344.06;;;23.10;42.97
48035;BME280;33812;46.480;6.834;2022-10-29T18:45:37;94345.00;;;23.20;44.31
48035;BME280;33812;46.480;6.834;2022-10-29T18:49:40;94342.47;;;23.26;43.50
48035;BME280;33812;46.480;6.834;2022-10-29T18:53:43;94343.25;;;23.26;43.90
48035;BME280;33812;46.480;6.834;2022-10-29T18:57:47;94340.31;;;23.17;43.38
48035;BME280;33812;46.480;6.834;2022-10-29T19:01:50;94353.34;;;23.33;44.38
48035;BME280;33812;46.480;6.834;2022-10-29T19:05:52;94345.22;;;23.42;44.95
48035;BME280;33812;46.480;6.834;2022-10-29T19:09:55;94342.78;;;23.45;44.41
48035;BME280;33812;46.480;6.834;2022-10-29T19:13:58;94341.91;;;23.48;45.91
48035;BME280;33812;46.480;6.834;2022-10-29T19:17:59;94338.38;;;23.60;46.35
48035;BME280;33812;46.480;6.834;2022-10-29T19:22:01;94343.03;;;23.63;46.69
48035;BME280;33812;46.480;6.834;2022-10-29T19:26:15;94340.28;;;23.63;46.78
48035;BME280;33812;46.480;6.834;2022-10-29T19:30:18;94341.81;;;23.64;46.74
48035;BME280;33812;46.480;6.834;2022-10-29T19:34:19;94339.84;;;23.65;46.27
48035;BME280;33812;46.480;6.834;2022-10-29T19:38:21;94336.59;;;23.66;46.23
48035;BME280;33812;46.480;6.834;2022-10-29T19:42:24;94331.50;;;23.65;46.39
48035;BME280;33812;46.480;6.834;2022-10-29T19:46:29;94324.84;;;23.62;46.43
48035;BME280;33812;46.480;6.834;2022-10-29T19:50:31;94336.25;;;23.64;45.84
48035;BME280;33812;46.480;6.834;2022-10-29T19:54:33;94332.63;;;23.67;46.38
48035;BME280;33812;46.480;6.834;2022-10-29T19:58:37;94327.09;;;23.67;46.52
48035;BME280;33812;46.480;6.834;2022-10-29T20:02:39;94328.63;;;23.69;46.29
48035;BME280;33812;46.480;6.834;2022-10-29T20:06:42;94325.84;;;23.69;46.38
48035;BME280;33812;46.480;6.834;2022-10-29T20:10:52;94325.06;;;23.68;46.32
48035;BME280;33812;46.480;6.834;2022-10-29T20:15:03;94323.06;;;23.69;46.37
48035;BME280;33812;46.480;6.834;2022-10-29T20:19:05;94321.84;;;23.70;46.15
48035;BME280;33812;46.480;6.834;2022-10-29T20:23:08;94335.72;;;23.70;46.01
48035;BME280;33812;46.480;6.834;2022-10-29T20:27:09;94324.63;;;23.70;46.13
48035;BME280;33812;46.480;6.834;2022-10-29T20:31:23;94325.84;;;23.69;45.84
48035;BME280;33812;46.480;6.834;2022-10-29T20:35:25;94326.19;;;23.71;45.88
48035;BME280;33812;46.480;6.834;2022-10-29T20:39:27;94328.97;;;23.71;46.04
48035;BME280;33812;46.480;6.834;2022-10-29T20:43:29;94326.63;;;23.69;45.78
48035;BME280;33812;46.480;6.834;2022-10-29T20:47:32;94329.41;;;23.69;45.88
48035;BME280;33812;46.480;6.834;2022-10-29T20:51:34;94328.19;;;23.70;46.26
48035;BME280;33812;46.480;6.834;2022-10-29T20:55:35;94322.72;;;23.66;45.73
48035;BME280;33812;46.480;6.834;2022-10-29T20:59:38;94328.28;;;23.66;45.73
48035;BME280;33812;46.480;6.834;2022-10-29T21:03:42;94321.94;;;23.66;45.81
48035;BME280;33812;46.480;6.834;2022-10-29T21:07:44;94321.19;;;23.65;45.63
48035;BME280;33812;46.480;6.834;2022-10-29T21:11:46;94322.41;;;23.64;45.82
48035;BME280;33812;46.480;6.834;2022-10-29T21:15:48;94319.19;;;23.66;45.67
48035;BME280;33812;46.480;6.834;2022-10-29T21:19:51;94314.06;;;23.64;45.97
48035;BME280;33812;46.480;6.834;2022-10-29T21:23:53;94316.84;;;23.64;45.54
48035;BME280;33812;46.480;6.834;2022-10-29T21:27:55;94316.09;;;23.64;45.61
48035;BME280;33812;46.480;6.834;2022-10-29T21:31:57;94312.09;;;23.65;45.64
48035;BME280;33812;46.480;6.834;2022-10-29T21:36:00;94311.28;;;23.64;45.76
48035;BME280;33812;46.480;6.834;2022-10-29T21:40:02;94301.44;;;23.63;45.63
48035;BME280;33812;46.480;6.834;2022-10-29T21:44:04;94301.44;;;23.63;45.84
48035;BME280;33812;46.480;6.834;2022-10-29T21:48:06;94307.75;;;23.64;45.70
48035;BME280;33812;46.480;6.834;2022-10-29T21:52:09;94298.66;;;23.63;45.77